createdAt,value
2018-03-22T00:00:21.540Z,71.48
2018-03-22T00:01:21.521Z,72.62
2018-03-22T00:02:21.509Z,72.99
2018-03-22T00:03:21.482Z,73.18
2018-03-22T00:04:21.460Z,73.66
2018-03-22T00:05:21.442Z,74.19
2018-03-22T00:06:21.422Z,73.56
2018-03-22T00:07:21.401Z,72.99
2018-03-22T00:08:21.382Z,73.47
2018-03-22T00:09:21.365Z,73.94
2018-03-22T00:10:21.341Z,74.13
2018-03-22T00:11:21.319Z,74.32
2018-03-22T00:12:21.301Z,74.28
2018-03-22T00:13:21.281Z,74.69
2018-03-22T00:14:21.260Z,74.95
2018-03-22T00:15:21.240Z,75.13
2018-03-22T00:16:21.220Z,75.89
2018-03-22T00:17:21.201Z,75.60
2018-03-22T00:18:21.198Z,76.07
2018-03-22T00:19:21.158Z,75.98
2018-03-22T00:20:21.137Z,76.17
2018-03-22T00:21:21.124Z,76.64
2018-03-22T00:22:21.099Z,75.79
2018-03-22T00:23:21.076Z,75.60
2018-03-22T00:24:21.058Z,76.26
2018-03-22T00:25:21.041Z,76.45
2018-03-22T00:26:21.022Z,77.82
2018-03-22T00:27:20.998Z,77.53
2018-03-22T00:28:20.983Z,76.40
2018-03-22T00:29:20.961Z,72.80
2018-03-22T00:30:20.942Z,72.52
2018-03-22T00:31:20.915Z,73.52
2018-03-22T00:32:20.894Z,74.04
2018-03-22T00:33:20.873Z,75.70
2018-03-22T00:34:20.852Z,76.21
2018-03-22T00:35:20.831Z,76.50
2018-03-22T00:36:20.809Z,75.83
2018-03-22T00:37:20.791Z,77.44
2018-03-22T00:38:20.769Z,75.74
2018-03-22T00:39:20.751Z,74.98
2018-03-22T00:40:20.727Z,74.98
2018-03-22T00:41:20.708Z,74.22
2018-03-22T00:42:20.694Z,76.68
2018-03-22T00:43:20.676Z,76.02
2018-03-22T00:44:20.646Z,74.98
2018-03-22T00:45:20.635Z,73.81
2018-03-22T00:46:20.610Z,74.19
2018-03-22T00:47:20.595Z,74.19
2018-03-22T00:48:20.566Z,74.47
2018-03-22T00:49:20.551Z,74.57
2018-03-22T00:50:20.526Z,74.95
2018-03-22T00:51:20.505Z,76.07
2018-03-22T00:52:20.482Z,76.07
2018-03-22T00:53:20.464Z,76.36
2018-03-22T00:54:20.445Z,76.45
2018-03-22T00:55:20.429Z,76.93
2018-03-22T00:56:20.402Z,77.31
2018-03-22T00:57:20.384Z,77.31
2018-03-22T00:58:20.364Z,77.78
2018-03-22T00:59:20.341Z,77.78
2018-03-22T01:00:20.320Z,77.69
2018-03-22T01:01:20.304Z,77.78
2018-03-22T01:02:20.279Z,78.44
2018-03-22T01:03:20.262Z,77.87
2018-03-22T01:04:20.239Z,77.78
2018-03-22T01:05:20.219Z,77.87
2018-03-22T01:06:20.197Z,77.78
2018-03-22T01:07:20.181Z,77.78
2018-03-22T01:08:20.156Z,77.31
2018-03-22T01:09:20.136Z,77.59
2018-03-22T01:10:20.116Z,77.40
2018-03-22T01:11:20.100Z,77.78
2018-03-22T01:12:20.074Z,77.87
2018-03-22T01:13:20.059Z,77.50
2018-03-22T01:14:20.042Z,77.78
2018-03-22T01:15:20.019Z,78.53
2018-03-22T01:16:20.000Z,77.69
2018-03-22T01:17:19.974Z,79.00
2018-03-22T01:18:19.957Z,79.29
2018-03-22T01:19:19.931Z,79.10
2018-03-22T01:20:19.911Z,78.72
2018-03-22T01:21:19.889Z,78.16
2018-03-22T01:22:19.868Z,77.50
2018-03-22T01:23:19.850Z,77.59
2018-03-22T01:24:19.828Z,76.26
2018-03-22T01:25:19.807Z,76.17
2018-03-22T01:26:19.788Z,76.07
2018-03-22T01:27:19.769Z,75.98
2018-03-22T01:28:19.746Z,76.07
2018-03-22T01:29:19.725Z,76.45
2018-03-22T01:30:19.704Z,76.83
2018-03-22T01:31:19.684Z,80.43
2018-03-22T01:32:19.670Z,77.97
2018-03-22T01:33:19.642Z,75.79
2018-03-22T01:34:19.631Z,75.42
2018-03-22T01:35:19.603Z,75.89
2018-03-22T01:36:19.588Z,76.83
2018-03-22T01:37:19.562Z,76.17
2018-03-22T01:38:19.583Z,76.26
2018-03-22T01:39:19.519Z,75.98
2018-03-22T01:40:19.498Z,79.86
2018-03-22T01:41:19.482Z,77.21
2018-03-22T01:42:19.456Z,75.79
2018-03-22T01:43:19.437Z,76.36
2018-03-22T01:44:19.418Z,74.95
2018-03-22T01:45:19.402Z,74.85
2018-03-22T01:46:19.385Z,75.51
2018-03-22T01:47:19.354Z,77.40
2018-03-22T01:48:19.338Z,76.36
2018-03-22T01:49:19.313Z,75.89
2018-03-22T01:50:19.291Z,75.70
2018-03-22T01:51:19.272Z,75.42
2018-03-22T01:52:19.249Z,75.70
2018-03-22T01:53:19.229Z,76.14
2018-03-22T01:54:19.209Z,76.45
2018-03-22T01:55:19.187Z,76.74
2018-03-22T01:56:19.167Z,77.26
2018-03-22T01:57:19.151Z,77.83
2018-03-22T01:58:19.128Z,77.64
2018-03-22T01:59:19.105Z,78.31
2018-03-22T02:00:19.082Z,78.50
2018-03-22T02:01:19.068Z,78.50
2018-03-22T02:02:19.048Z,79.06
2018-03-22T02:03:19.028Z,78.87
2018-03-22T02:04:19.006Z,80.38
2018-03-22T02:05:18.979Z,80.80
2018-03-22T02:06:18.964Z,79.57
2018-03-22T02:07:18.940Z,78.72
2018-03-22T02:08:18.919Z,78.25
2018-03-22T02:09:18.902Z,78.63
2018-03-22T02:10:18.878Z,78.53
2018-03-22T02:11:18.857Z,77.12
2018-03-22T02:12:18.840Z,77.50
2018-03-22T02:13:18.816Z,76.45
2018-03-22T02:14:18.796Z,75.79
2018-03-22T02:15:18.771Z,77.31
2018-03-22T02:16:18.754Z,77.40
2018-03-22T02:17:18.729Z,77.50
2018-03-22T02:18:18.709Z,77.78
2018-03-22T02:19:18.691Z,78.02
2018-03-22T02:20:18.669Z,77.64
2018-03-22T02:21:18.646Z,78.21
2018-03-22T02:22:18.628Z,78.31
2018-03-22T02:23:18.605Z,79.19
2018-03-22T02:24:18.584Z,80.24
2018-03-22T02:25:18.569Z,79.19
2018-03-22T02:26:18.543Z,79.10
2018-03-22T02:27:18.524Z,78.44
2018-03-22T02:28:18.505Z,77.40
2018-03-22T02:29:18.485Z,77.50
2018-03-22T02:30:18.461Z,77.55
2018-03-22T02:31:18.456Z,77.45
2018-03-22T02:32:18.417Z,79.95
2018-03-22T02:33:18.408Z,78.72
2018-03-22T02:34:18.385Z,78.12
2018-03-22T02:35:18.366Z,77.74
2018-03-22T02:36:18.343Z,78.02
2018-03-22T02:37:18.314Z,78.50
2018-03-22T02:38:18.296Z,78.68
2018-03-22T02:39:18.278Z,79.06
2018-03-22T02:40:18.256Z,78.68
2018-03-22T02:41:18.232Z,78.97
2018-03-22T02:42:18.209Z,79.25
2018-03-22T02:43:18.188Z,79.06
2018-03-22T02:44:18.172Z,79.35
2018-03-22T02:45:18.145Z,79.16
2018-03-22T02:46:18.124Z,79.72
2018-03-22T02:47:18.104Z,79.82
2018-03-22T02:48:18.082Z,79.53
2018-03-22T02:49:18.063Z,80.29
2018-03-22T02:50:18.042Z,80.19
2018-03-22T02:51:18.021Z,79.63
2018-03-22T02:52:18.004Z,79.16
2018-03-22T02:53:17.981Z,79.06
2018-03-22T02:54:17.960Z,79.16
2018-03-22T02:55:17.940Z,80.85
2018-03-22T02:56:17.916Z,80.29
2018-03-22T02:57:17.894Z,80.76
2018-03-22T02:58:17.878Z,79.53
2018-03-22T02:59:17.853Z,79.19
2018-03-22T03:00:17.832Z,77.87
2018-03-22T03:01:17.818Z,77.59
2018-03-22T03:02:17.794Z,77.59
2018-03-22T03:03:17.772Z,77.40
2018-03-22T03:04:17.747Z,78.06
2018-03-22T03:05:17.728Z,77.31
2018-03-22T03:06:17.711Z,77.08
2018-03-22T03:07:17.685Z,77.17
2018-03-22T03:08:17.665Z,77.55
2018-03-22T03:09:17.643Z,78.68
2018-03-22T03:10:17.626Z,79.35
2018-03-22T03:11:17.603Z,78.78
2018-03-22T03:12:17.583Z,78.68
2018-03-22T03:13:17.561Z,78.68
2018-03-22T03:14:17.536Z,79.53
2018-03-22T03:15:17.516Z,79.72
2018-03-22T03:16:17.502Z,79.91
2018-03-22T03:17:17.475Z,80.29
2018-03-22T03:18:17.455Z,80.57
2018-03-22T03:19:17.433Z,80.85
2018-03-22T03:20:17.413Z,80.95
2018-03-22T03:21:17.394Z,81.42
2018-03-22T03:22:17.378Z,81.33
2018-03-22T03:23:17.350Z,83.40
2018-03-22T03:24:17.329Z,82.93
2018-03-22T03:25:17.311Z,82.28
2018-03-22T03:26:17.287Z,83.69
2018-03-22T03:27:17.264Z,81.14
2018-03-22T03:28:17.241Z,80.00
2018-03-22T03:29:17.222Z,80.19
2018-03-22T03:30:17.239Z,80.57
2018-03-22T03:31:17.180Z,80.76
2018-03-22T03:32:17.156Z,81.80
2018-03-22T03:33:17.143Z,81.42
2018-03-22T03:34:17.118Z,80.38
2018-03-22T03:35:17.102Z,80.29
2018-03-22T03:36:17.072Z,80.85
2018-03-22T03:37:17.057Z,80.95
2018-03-22T03:38:17.030Z,81.14
2018-03-22T03:39:17.009Z,81.99
2018-03-22T03:40:16.988Z,81.61
2018-03-22T03:41:16.998Z,82.37
2018-03-22T03:42:16.945Z,82.18
2018-03-22T03:43:16.933Z,82.46
2018-03-22T03:44:16.904Z,83.03
2018-03-22T03:45:16.886Z,82.75
2018-03-22T03:46:16.861Z,83.12
2018-03-22T03:47:16.842Z,83.22
2018-03-22T03:48:16.824Z,83.31
2018-03-22T03:49:16.798Z,83.78
2018-03-22T03:50:16.781Z,83.69
2018-03-22T03:51:16.758Z,83.88
2018-03-22T03:52:16.742Z,83.78
2018-03-22T03:53:16.712Z,83.88
2018-03-22T03:54:16.692Z,83.88
2018-03-22T03:55:16.672Z,83.59
2018-03-22T03:56:16.651Z,84.07
2018-03-22T03:57:16.637Z,83.50
2018-03-22T03:58:16.607Z,83.88
2018-03-22T03:59:16.585Z,83.69
2018-03-22T04:00:16.565Z,84.07
2018-03-22T04:01:16.542Z,84.54
2018-03-22T04:02:16.528Z,84.16
2018-03-22T04:03:16.507Z,84.16
2018-03-22T04:04:16.479Z,84.07
2018-03-22T04:05:16.458Z,82.75
2018-03-22T04:06:16.438Z,82.56
2018-03-22T04:07:16.416Z,82.37
2018-03-22T04:08:16.395Z,82.46
2018-03-22T04:09:16.376Z,82.37
2018-03-22T04:10:16.358Z,82.09
2018-03-22T04:11:16.339Z,81.80
2018-03-22T04:12:16.307Z,81.80
2018-03-22T04:13:16.294Z,81.80
2018-03-22T04:14:16.275Z,82.09
2018-03-22T04:15:16.256Z,81.90
2018-03-22T04:16:16.224Z,83.03
2018-03-22T04:17:16.209Z,83.69
2018-03-22T04:18:16.182Z,81.71
2018-03-22T04:19:16.160Z,80.85
2018-03-22T04:20:16.137Z,81.33
2018-03-22T04:21:16.118Z,80.76
2018-03-22T04:22:16.096Z,81.23
2018-03-22T04:23:16.075Z,81.42
2018-03-22T04:24:16.060Z,81.29
2018-03-22T04:25:16.038Z,81.42
2018-03-22T04:26:16.015Z,81.52
2018-03-22T04:27:16.040Z,81.33
2018-03-22T04:28:15.967Z,81.52
2018-03-22T04:29:15.948Z,80.76
2018-03-22T04:30:15.924Z,80.66
2018-03-22T04:31:15.915Z,80.48
2018-03-22T04:32:15.883Z,80.10
2018-03-22T04:33:15.862Z,80.76
2018-03-22T04:34:15.857Z,80.66
2018-03-22T04:35:15.820Z,80.38
2018-03-22T04:36:15.797Z,80.57
2018-03-22T04:37:15.776Z,80.38
2018-03-22T04:38:15.760Z,80.66
2018-03-22T04:39:15.735Z,80.95
2018-03-22T04:40:15.710Z,81.38
2018-03-22T04:41:15.691Z,81.52
2018-03-22T04:42:15.675Z,80.85
2018-03-22T04:43:15.656Z,81.48
2018-03-22T04:44:15.627Z,81.38
2018-03-22T04:45:15.604Z,81.57
2018-03-22T04:46:15.583Z,81.76
2018-03-22T04:47:15.564Z,82.09
2018-03-22T04:48:15.547Z,83.03
2018-03-22T04:49:15.521Z,82.84
2018-03-22T04:50:15.500Z,82.84
2018-03-22T04:51:15.478Z,82.84
2018-03-22T04:52:15.456Z,82.37
2018-03-22T04:53:15.439Z,82.09
2018-03-22T04:54:15.412Z,82.84
2018-03-22T04:55:15.391Z,82.23
2018-03-22T04:56:15.368Z,82.51
2018-03-22T04:57:15.357Z,82.75
2018-03-22T04:58:15.327Z,82.80
2018-03-22T04:59:15.350Z,84.45
2018-03-22T05:00:15.291Z,83.78
2018-03-22T05:01:15.265Z,82.46
2018-03-22T05:02:15.245Z,82.56
2018-03-22T05:03:15.219Z,82.61
2018-03-22T05:04:15.198Z,83.40
2018-03-22T05:05:15.179Z,83.27
2018-03-22T05:06:15.158Z,83.27
2018-03-22T05:07:15.137Z,84.03
2018-03-22T05:08:15.113Z,84.22
2018-03-22T05:09:15.091Z,83.27
2018-03-22T05:10:15.075Z,84.92
2018-03-22T05:11:15.065Z,84.12
2018-03-22T05:12:15.033Z,82.89
2018-03-22T05:13:15.013Z,82.65
2018-03-22T05:14:14.992Z,82.51
2018-03-22T05:15:14.966Z,83.69
2018-03-22T05:16:14.942Z,85.01
2018-03-22T05:17:14.921Z,84.41
2018-03-22T05:18:14.905Z,84.78
2018-03-22T05:19:14.885Z,84.88
2018-03-22T05:20:14.863Z,85.01
2018-03-22T05:21:14.839Z,85.35
2018-03-22T05:22:14.820Z,85.16
2018-03-22T05:23:14.797Z,85.72
2018-03-22T05:24:14.774Z,85.44
2018-03-22T05:25:14.752Z,85.63
2018-03-22T05:26:14.732Z,86.10
2018-03-22T05:27:14.711Z,86.48
2018-03-22T05:28:14.687Z,86.38
2018-03-22T05:29:14.670Z,86.01
2018-03-22T05:30:14.648Z,86.05
2018-03-22T05:31:14.621Z,86.48
2018-03-22T05:32:14.597Z,85.82
2018-03-22T05:33:14.576Z,85.63
2018-03-22T05:34:14.571Z,85.77
2018-03-22T05:35:14.542Z,85.86
2018-03-22T05:36:14.517Z,86.10
2018-03-22T05:37:14.491Z,86.10
2018-03-22T05:38:14.468Z,86.19
2018-03-22T05:39:14.450Z,86.90
2018-03-22T05:40:14.430Z,86.19
2018-03-22T05:41:14.404Z,86.05
2018-03-22T05:42:14.383Z,85.53
2018-03-22T05:43:14.370Z,86.29
2018-03-22T05:44:14.338Z,85.30
2018-03-22T05:45:14.323Z,86.10
2018-03-22T05:46:14.299Z,86.90
2018-03-22T05:47:14.275Z,86.43
2018-03-22T05:48:14.252Z,86.33
2018-03-22T05:49:14.232Z,86.05
2018-03-22T05:50:14.212Z,85.96
2018-03-22T05:51:14.193Z,85.11
2018-03-22T05:52:14.171Z,84.82
2018-03-22T05:53:14.147Z,84.82
2018-03-22T05:54:14.126Z,85.30
2018-03-22T05:55:14.112Z,84.82
2018-03-22T05:56:14.089Z,84.92
2018-03-22T05:57:14.074Z,84.92
2018-03-22T05:58:14.044Z,84.73
2018-03-22T05:59:14.020Z,84.92
2018-03-22T06:00:14.001Z,84.07
2018-03-22T06:01:13.982Z,83.97
2018-03-22T06:02:13.964Z,84.73
2018-03-22T06:03:13.933Z,85.39
2018-03-22T06:04:13.919Z,84.73
2018-03-22T06:05:13.890Z,84.16
2018-03-22T06:06:13.869Z,86.71
2018-03-22T06:07:13.848Z,85.68
2018-03-22T06:08:13.833Z,85.96
2018-03-22T06:09:13.818Z,84.73
2018-03-22T06:10:13.786Z,83.31
2018-03-22T06:11:13.768Z,83.69
2018-03-22T06:12:13.740Z,83.88
2018-03-22T06:13:13.719Z,83.97
2018-03-22T06:14:13.699Z,83.78
2018-03-22T06:15:13.680Z,83.78
2018-03-22T06:16:13.659Z,84.45
2018-03-22T06:17:13.634Z,86.15
2018-03-22T06:18:13.616Z,86.33
2018-03-22T06:19:13.600Z,85.01
2018-03-22T06:20:13.577Z,84.16
2018-03-22T06:21:13.552Z,84.82
2018-03-22T06:22:13.533Z,84.92
2018-03-22T06:23:13.508Z,85.01
2018-03-22T06:24:13.486Z,84.45
2018-03-22T06:25:13.466Z,84.64
2018-03-22T06:26:13.445Z,85.30
2018-03-22T06:27:13.422Z,84.82
2018-03-22T06:28:13.403Z,84.64
2018-03-22T06:29:13.395Z,85.86
2018-03-22T06:30:13.365Z,84.92
2018-03-22T06:31:13.340Z,84.82
2018-03-22T06:32:13.313Z,85.39
2018-03-22T06:33:13.293Z,84.92
2018-03-22T06:34:13.270Z,84.54
2018-03-22T06:35:13.255Z,84.92
2018-03-22T06:36:13.234Z,84.73
2018-03-22T06:37:13.208Z,84.73
2018-03-22T06:38:13.188Z,84.64
2018-03-22T06:39:13.167Z,84.58
2018-03-22T06:40:13.145Z,83.83
2018-03-22T06:41:13.122Z,83.54
2018-03-22T06:42:13.103Z,83.83
2018-03-22T06:43:13.081Z,83.26
2018-03-22T06:44:13.063Z,83.17
2018-03-22T06:45:13.039Z,83.17
2018-03-22T06:46:13.019Z,82.69
2018-03-22T06:47:12.999Z,82.41
2018-03-22T06:48:12.982Z,82.60
2018-03-22T06:49:12.953Z,82.50
2018-03-22T06:50:12.937Z,82.31
2018-03-22T06:51:12.914Z,81.65
2018-03-22T06:52:12.890Z,82.60
2018-03-22T06:53:12.880Z,82.69
2018-03-22T06:54:12.857Z,80.14
2018-03-22T06:55:12.831Z,79.48
2018-03-22T06:56:12.809Z,79.43
2018-03-22T06:57:12.789Z,79.05
2018-03-22T06:58:12.769Z,79.24
2018-03-22T06:59:12.756Z,80.37
2018-03-22T07:00:12.731Z,79.14
2018-03-22T07:01:12.708Z,78.58
2018-03-22T07:02:12.693Z,78.29
2018-03-22T07:03:12.664Z,78.01
2018-03-22T07:04:12.652Z,77.44
2018-03-22T07:05:12.624Z,77.06
2018-03-22T07:06:12.605Z,78.10
2018-03-22T07:07:12.587Z,77.15
2018-03-22T07:08:12.571Z,77.82
2018-03-22T07:09:12.544Z,78.01
2018-03-22T07:10:12.523Z,79.33
2018-03-22T07:11:12.504Z,81.88
2018-03-22T07:12:12.484Z,79.05
2018-03-22T07:13:12.473Z,78.48
2018-03-22T07:14:12.447Z,78.33
2018-03-22T07:15:12.424Z,77.20
2018-03-22T07:16:12.410Z,78.33
2018-03-22T07:17:12.391Z,76.72
2018-03-22T07:18:12.371Z,75.59
2018-03-22T07:19:12.351Z,73.79
2018-03-22T07:20:12.330Z,74.36
2018-03-22T07:21:12.306Z,74.07
2018-03-22T07:22:12.292Z,75.87
2018-03-22T07:23:12.266Z,75.68
2018-03-22T07:24:12.248Z,76.15
2018-03-22T07:25:12.228Z,76.15
2018-03-22T07:26:12.208Z,73.88
2018-03-22T07:27:12.189Z,74.26
2018-03-22T07:28:12.168Z,72.94
2018-03-22T07:29:12.157Z,72.09
2018-03-22T07:30:12.129Z,73.69
2018-03-22T07:31:12.115Z,73.03
2018-03-22T07:32:12.092Z,72.28
2018-03-22T07:33:12.074Z,72.18
2018-03-22T07:34:12.058Z,72.47
2018-03-22T07:35:12.033Z,72.28
2018-03-22T07:36:12.013Z,72.94
2018-03-22T07:37:11.998Z,75.62
2018-03-22T07:38:11.975Z,72.97
2018-03-22T07:39:11.956Z,73.83
2018-03-22T07:40:11.936Z,72.69
2018-03-22T07:41:11.919Z,72.03
2018-03-22T07:42:11.903Z,71.27
2018-03-22T07:43:11.883Z,70.23
2018-03-22T07:44:11.862Z,69.47
2018-03-22T07:45:11.845Z,71.08
2018-03-22T07:46:11.823Z,69.85
2018-03-22T07:47:11.811Z,70.61
2018-03-22T07:48:11.788Z,69.76
2018-03-22T07:49:11.768Z,71.55
2018-03-22T07:50:11.749Z,71.55
2018-03-22T07:51:11.730Z,70.07
2018-03-22T07:52:11.711Z,69.79
2018-03-22T07:53:11.692Z,70.45
2018-03-22T07:54:11.674Z,70.36
2018-03-22T07:55:11.662Z,70.17
2018-03-22T07:56:11.637Z,69.70
2018-03-22T07:57:11.626Z,69.03
2018-03-22T07:58:11.600Z,67.43
2018-03-22T07:59:11.590Z,69.13
2018-03-22T08:00:11.567Z,70.78
2018-03-22T08:01:11.551Z,70.39
2018-03-22T08:02:11.536Z,69.73
2018-03-22T08:03:11.510Z,65.09
2018-03-22T08:04:11.543Z,65.00
2018-03-22T08:05:11.479Z,64.61
2018-03-22T08:06:11.461Z,63.85
2018-03-22T08:07:11.442Z,64.04
2018-03-22T08:08:11.419Z,64.81
2018-03-22T08:09:11.403Z,64.33
2018-03-22T08:10:11.384Z,63.57
2018-03-22T08:11:11.367Z,63.57
2018-03-22T08:12:11.352Z,63.10
2018-03-22T08:13:11.332Z,63.10
2018-03-22T08:14:11.311Z,62.82
2018-03-22T08:15:11.303Z,63.20
2018-03-22T08:16:11.276Z,63.29
2018-03-22T08:17:11.263Z,62.91
2018-03-22T08:18:11.246Z,62.53
2018-03-22T08:19:11.226Z,62.05
2018-03-22T08:20:11.216Z,62.05
2018-03-22T08:21:11.197Z,61.68
2018-03-22T08:22:11.171Z,61.68
2018-03-22T08:23:11.157Z,62.34
2018-03-22T08:24:11.137Z,61.90
2018-03-22T08:25:11.121Z,60.38
2018-03-22T08:26:11.104Z,61.33
2018-03-22T08:27:11.086Z,61.33
2018-03-22T08:28:11.068Z,63.79
2018-03-22T08:29:11.052Z,61.24
2018-03-22T08:30:11.034Z,63.32
2018-03-22T08:31:11.026Z,59.72
2018-03-22T08:32:11.005Z,59.72
2018-03-22T08:33:10.984Z,60.41
2018-03-22T08:34:10.969Z,60.22
2018-03-22T08:35:10.954Z,58.42
2018-03-22T08:36:10.943Z,59.08
2018-03-22T08:37:10.917Z,59.27
2018-03-22T08:38:10.900Z,57.28
2018-03-22T08:39:10.883Z,57.28
2018-03-22T08:40:10.867Z,56.99
2018-03-22T08:41:10.869Z,56.71
2018-03-22T08:42:10.834Z,56.24
2018-03-22T08:43:10.827Z,56.93
2018-03-22T08:44:10.807Z,55.51
2018-03-22T08:45:10.792Z,55.70
2018-03-22T08:46:10.771Z,57.03
2018-03-22T08:47:10.759Z,56.62
2018-03-22T08:48:10.738Z,56.15
2018-03-22T08:49:10.722Z,55.67
2018-03-22T08:50:10.710Z,55.04
2018-03-22T08:51:10.691Z,54.75
2018-03-22T08:52:10.680Z,53.87
2018-03-22T08:53:10.657Z,53.33
2018-03-22T08:54:10.648Z,53.99
2018-03-22T08:55:10.627Z,53.80
2018-03-22T08:56:10.615Z,53.87
2018-03-22T08:57:10.592Z,54.72
2018-03-22T08:58:10.584Z,54.91
2018-03-22T08:59:10.560Z,55.57
2018-03-22T09:00:10.544Z,55.48
2018-03-22T09:01:10.538Z,54.63
2018-03-22T09:02:10.514Z,54.53
2018-03-22T09:03:10.498Z,58.33
2018-03-22T09:04:10.482Z,56.52
2018-03-22T09:05:10.466Z,55.67
2018-03-22T09:06:10.454Z,55.29
2018-03-22T09:07:10.443Z,55.00
2018-03-22T09:08:10.429Z,55.38
2018-03-22T09:09:10.405Z,55.86
2018-03-22T09:10:10.389Z,55.38
2018-03-22T09:11:10.372Z,56.15
2018-03-22T09:12:10.355Z,55.86
2018-03-22T09:13:10.340Z,55.04
2018-03-22T09:14:10.344Z,56.74
2018-03-22T09:15:10.314Z,57.50
2018-03-22T09:16:10.297Z,55.89
2018-03-22T09:17:10.277Z,56.29
2018-03-22T09:18:10.262Z,53.92
2018-03-22T09:19:10.247Z,54.78
2018-03-22T09:20:10.240Z,53.45
2018-03-22T09:21:10.216Z,52.12
2018-03-22T09:22:10.207Z,52.87
2018-03-22T09:23:10.192Z,53.07
2018-03-22T09:24:10.170Z,51.17
2018-03-22T09:25:10.156Z,54.78
2018-03-22T09:26:10.148Z,51.17
2018-03-22T09:27:10.127Z,49.27
2018-03-22T09:28:10.118Z,50.70
2018-03-22T09:29:10.106Z,52.97
2018-03-22T09:30:10.082Z,51.93
2018-03-22T09:31:10.072Z,50.60
2018-03-22T09:32:10.051Z,51.07
2018-03-22T09:33:10.038Z,50.22
2018-03-22T09:34:10.024Z,50.51
2018-03-22T09:35:10.007Z,50.24
2018-03-22T09:36:09.992Z,49.20
2018-03-22T09:37:09.979Z,50.53
2018-03-22T09:38:09.963Z,50.34
2018-03-22T09:39:09.949Z,49.77
2018-03-22T09:40:09.934Z,48.72
2018-03-22T09:41:09.925Z,49.10
2018-03-22T09:42:09.915Z,48.63
2018-03-22T09:43:09.898Z,47.68
2018-03-22T09:44:09.877Z,47.58
2018-03-22T09:45:09.864Z,48.16
2018-03-22T09:46:09.849Z,49.49
2018-03-22T09:47:09.833Z,47.99
2018-03-22T09:48:09.834Z,47.33
2018-03-22T09:49:09.806Z,47.42
2018-03-22T09:50:09.791Z,47.99
2018-03-22T09:51:09.779Z,47.61
2018-03-22T09:52:09.769Z,48.46
2018-03-22T09:53:09.748Z,46.85
2018-03-22T09:54:09.737Z,46.19
2018-03-22T09:55:09.721Z,45.80
2018-03-22T09:56:09.709Z,49.04
2018-03-22T09:57:09.699Z,49.98
2018-03-22T09:58:09.683Z,47.89
2018-03-22T09:59:09.665Z,47.33
2018-03-22T10:00:09.653Z,46.06
2018-03-22T10:01:09.637Z,45.40
2018-03-22T10:02:09.625Z,45.31
2018-03-22T10:03:09.611Z,46.64
2018-03-22T10:04:09.596Z,48.16
2018-03-22T10:05:09.582Z,48.72
2018-03-22T10:06:09.568Z,47.87
2018-03-22T10:07:09.555Z,48.54
2018-03-22T10:08:09.541Z,50.62
2018-03-22T10:09:09.526Z,50.18
2018-03-22T10:10:09.516Z,50.46
2018-03-22T10:11:09.499Z,46.73
2018-03-22T10:12:09.492Z,44.93
2018-03-22T10:13:09.471Z,46.45
2018-03-22T10:14:09.463Z,48.27
2018-03-22T10:15:09.443Z,46.16
2018-03-22T10:16:09.430Z,45.87
2018-03-22T10:17:09.420Z,46.92
2018-03-22T10:18:09.404Z,46.35
2018-03-22T10:19:09.387Z,46.64
2018-03-22T10:20:09.381Z,46.19
2018-03-22T10:21:09.368Z,48.27
2018-03-22T10:22:09.346Z,52.36
2018-03-22T10:23:09.338Z,48.08
2018-03-22T10:24:09.317Z,45.16
2018-03-22T10:25:09.304Z,44.97
2018-03-22T10:26:09.296Z,46.97
2018-03-22T10:27:09.278Z,43.93
2018-03-22T10:28:09.265Z,42.69
2018-03-22T10:29:09.250Z,43.07
2018-03-22T10:30:09.237Z,43.16
2018-03-22T10:31:09.230Z,41.83
2018-03-22T10:32:09.214Z,41.74
2018-03-22T10:33:09.199Z,41.46
2018-03-22T10:34:09.195Z,41.46
2018-03-22T10:35:09.177Z,40.41
2018-03-22T10:36:09.157Z,41.64
2018-03-22T10:37:09.145Z,41.46
2018-03-22T10:38:09.130Z,42.50
2018-03-22T10:39:09.119Z,43.07
2018-03-22T10:40:09.105Z,45.35
2018-03-22T10:41:09.091Z,42.31
2018-03-22T10:42:09.080Z,42.02
2018-03-22T10:43:09.068Z,41.17
2018-03-22T10:44:09.055Z,40.98
2018-03-22T10:45:09.042Z,42.31
2018-03-22T10:46:09.033Z,40.22
2018-03-22T10:47:09.021Z,41.93
2018-03-22T10:48:09.000Z,40.69
2018-03-22T10:49:08.993Z,40.31
2018-03-22T10:50:08.982Z,42.12
2018-03-22T10:51:08.969Z,40.31
2018-03-22T10:52:08.947Z,39.84
2018-03-22T10:53:08.937Z,37.37
2018-03-22T10:54:08.922Z,39.84
2018-03-22T10:55:08.913Z,39.38
2018-03-22T10:56:08.898Z,39.19
2018-03-22T10:57:08.889Z,38.71
2018-03-22T10:58:08.870Z,38.62
2018-03-22T10:59:08.858Z,37.86
2018-03-22T11:00:08.850Z,38.24
2018-03-22T11:01:08.844Z,37.86
2018-03-22T11:02:08.820Z,36.53
2018-03-22T11:03:08.807Z,36.24
2018-03-22T11:04:08.795Z,37.95
2018-03-22T11:05:08.784Z,36.24
2018-03-22T11:06:08.810Z,36.53
2018-03-22T11:07:08.761Z,37.38
2018-03-22T11:08:08.742Z,38.53
2018-03-22T11:09:08.731Z,38.62
2018-03-22T11:10:08.724Z,37.10
2018-03-22T11:11:08.705Z,36.53
2018-03-22T11:12:08.698Z,35.38
2018-03-22T11:13:08.680Z,37.67
2018-03-22T11:14:08.665Z,35.78
2018-03-22T11:15:08.653Z,33.69
2018-03-22T11:16:08.641Z,33.50
2018-03-22T11:17:08.634Z,35.88
2018-03-22T11:18:08.624Z,35.19
2018-03-22T11:19:08.609Z,37.21
2018-03-22T11:20:08.590Z,37.69
2018-03-22T11:21:08.578Z,35.77
2018-03-22T11:22:08.582Z,35.96
2018-03-22T11:23:08.554Z,36.05
2018-03-22T11:24:08.554Z,36.83
2018-03-22T11:25:08.536Z,37.30
2018-03-22T11:26:08.526Z,36.35
2018-03-22T11:27:08.513Z,34.17
2018-03-22T11:28:08.493Z,35.97
2018-03-22T11:29:08.481Z,32.83
2018-03-22T11:30:08.478Z,32.93
2018-03-22T11:31:08.457Z,33.23
2018-03-22T11:32:08.450Z,35.04
2018-03-22T11:33:08.435Z,34.45
2018-03-22T11:34:08.420Z,33.78
2018-03-22T11:35:08.416Z,33.31
2018-03-22T11:36:08.396Z,34.09
2018-03-22T11:37:08.384Z,33.04
2018-03-22T11:38:08.373Z,32.64
2018-03-22T11:39:08.367Z,33.99
2018-03-22T11:40:08.347Z,31.42
2018-03-22T11:41:08.339Z,30.18
2018-03-22T11:42:08.327Z,31.04
2018-03-22T11:43:08.313Z,30.37
2018-03-22T11:44:08.301Z,31.42
2018-03-22T11:45:08.293Z,31.42
2018-03-22T11:46:08.278Z,32.66
2018-03-22T11:47:08.267Z,35.23
2018-03-22T11:48:08.262Z,36.28
2018-03-22T11:49:08.254Z,33.42
2018-03-22T11:50:08.235Z,31.71
2018-03-22T11:51:08.222Z,33.51
2018-03-22T11:52:08.208Z,31.99
2018-03-22T11:53:08.197Z,33.90
2018-03-22T11:54:08.198Z,32.28
2018-03-22T11:55:08.175Z,31.23
2018-03-22T11:56:08.164Z,29.33
2018-03-22T11:57:08.153Z,31.80
2018-03-22T11:58:08.141Z,31.99
2018-03-22T11:59:08.165Z,32.75
2018-03-22T12:00:08.117Z,34.47
2018-03-22T12:01:08.107Z,35.13
2018-03-22T12:02:08.096Z,34.94
2018-03-22T12:03:08.084Z,35.33
2018-03-22T12:04:08.076Z,34.09
2018-03-22T12:05:08.062Z,32.18
2018-03-22T12:06:08.055Z,30.57
2018-03-22T12:07:08.049Z,32.75
2018-03-22T12:08:08.030Z,32.09
2018-03-22T12:09:08.016Z,31.80
2018-03-22T12:10:08.012Z,34.56
2018-03-22T12:11:08.050Z,36.66
2018-03-22T12:12:07.991Z,33.80
2018-03-22T12:13:07.974Z,34.18
2018-03-22T12:14:07.960Z,34.75
2018-03-22T12:15:07.951Z,33.88
2018-03-22T12:16:07.939Z,34.26
2018-03-22T12:17:07.981Z,35.02
2018-03-22T12:18:07.916Z,37.12
2018-03-22T12:19:07.907Z,37.30
2018-03-22T12:20:07.894Z,36.83
2018-03-22T12:21:07.881Z,35.21
2018-03-22T12:22:07.875Z,36.26
2018-03-22T12:23:07.861Z,35.12
2018-03-22T12:24:07.853Z,36.93
2018-03-22T12:25:07.841Z,37.21
2018-03-22T12:26:07.829Z,37.88
2018-03-22T12:27:07.812Z,36.07
2018-03-22T12:28:07.800Z,35.21
2018-03-22T12:29:07.788Z,37.12
2018-03-22T12:30:07.777Z,38.26
2018-03-22T12:31:07.772Z,38.73
2018-03-22T12:32:07.753Z,36.16
2018-03-22T12:33:07.748Z,36.07
2018-03-22T12:34:07.729Z,37.12
2018-03-22T12:35:07.724Z,37.69
2018-03-22T12:36:07.712Z,36.26
2018-03-22T12:37:07.701Z,34.26
2018-03-22T12:38:07.682Z,35.77
2018-03-22T12:39:07.670Z,38.45
2018-03-22T12:40:07.658Z,36.45
2018-03-22T12:41:07.653Z,37.49
2018-03-22T12:42:07.635Z,38.83
2018-03-22T12:43:07.623Z,38.17
2018-03-22T12:44:07.610Z,37.40
2018-03-22T12:45:07.604Z,37.97
2018-03-22T12:46:07.590Z,38.35
2018-03-22T12:47:07.580Z,37.21
2018-03-22T12:48:07.562Z,37.88
2018-03-22T12:49:07.550Z,39.12
2018-03-22T12:50:07.539Z,39.21
2018-03-22T12:51:07.527Z,37.30
2018-03-22T12:52:07.515Z,37.80